Dunlap Lake, Illinois
Current Conditions -  °F | °C
As of 1:15 AM on Thursday 23 Oct 2014 (Local Time) from KALN Reporting Station
Clear Clear  
Wind Chill: 39°   Ceiling: Unl
Heat Index: 39°   Visibility: 10mi
Dew Point: 38°   Wind: 3mph
Humidity: 94%   Direction: 100°E
Pressure: 30.23"   Gusts: NA
Location:  38.8031°N, 89.9742°W
Report Text: KALN 230615Z AUTO 10003KT 10SM CLR 04/03 A3023 RMK AO2 T00400031
Loading
Personal Weather Stations






























Interactive Weather Map
Tropical Storm Tracking
New forecast layout! Learn more

10-Day Weather Forecast

Advertisements
Track Severe Weather on mobile